Flight Track Log - Related Links

Times and Time Zones

All times are in EDT time to prevent confusion due to time zone crossing. See the N425EM flight status page for this flight to view local times or setup timezone preferences in your user account.

Time Position Orientation Groundspeed Altitude Reporting Facility
EDT Latitude Longitude Course Direction KTS MPH feet Rate Location/Type
Sat 08:44:32 AM 42.7833 -71.5333 312° West 126 145 800  Level KA90
Sat 08:45:38 AM 42.8167 -71.5833 312° West 146 168 2,500 1,667 Climbing KA90
Sat 08:46:38 AM 42.8167 -71.6333 270° West 140 161 4,300 1,537 Climbing KA90
Sat 08:47:39 AM 42.8167 -71.6833 270° West 151 174 5,600 1,343 Climbing KA90
Sat 08:49:01 AM 42.8069 -71.7722 262° West 160 184 7,500 1,479 Climbing Boston Center
Sat 08:50:01 AM 42.8053 -71.8344 268° West 160 184 9,100 1,450 Climbing Boston Center
Sat 08:51:01 AM 42.8033 -71.8911 267° West 165 190 10,400 1,300 Climbing Boston Center
Sat 08:52:01 AM 42.8017 -71.9619 268° West 171 197 11,700 850 Climbing Boston Center
Sat 08:53:01 AM 42.8019 -72.0269 270° West 184 212 12,100 200 Climbing Boston Center
Sat 08:54:01 AM 42.8000 -72.1147 268° West 206 237 12,100  Level Boston Center
Sat 08:55:01 AM 42.7981 -72.1856 268° West 217 250 12,100 450 Level Boston Center
Sat 08:56:01 AM 42.7961 -72.2619 268° West 204 235 13,000 800 Climbing Boston Center
Sat 08:57:01 AM 42.7922 -72.3297 266° West 193 222 13,700 950 Climbing Boston Center
Sat 08:58:01 AM 42.7900 -72.3947 267° West 187 215 14,900 1,250 Climbing Boston Center
Sat 08:59:01 AM 42.7922 -72.4569 273° West 175 201 16,200 1,200 Climbing Boston Center
Sat 09:00:01 AM 42.7900 -72.5192 267° West 175 201 17,300 900 Climbing Boston Center
Sat 09:01:01 AM 42.7881 -72.5814 268° West 175 201 18,000 800 Climbing Boston Center
Sat 09:02:01 AM 42.7858 -72.6467 267° West 175 201 18,900 750 Climbing Boston Center
Sat 09:03:01 AM 42.7836 -72.7003 267° West 169 194 19,500 550 Climbing Boston Center
Sat 09:04:01 AM 42.7833 -72.7625 270° West 169 194 20,000 250 Climbing Boston Center
Sat 09:05:01 AM 42.7811 -72.8361 268° West 182 209 20,000  Level Boston Center
Sat 09:06:01 AM 42.7808 -72.9181 270° West 199 229 20,000  Level Boston Center
Sat 09:07:01 AM 42.7761 -73.0058 266° West 204 235 20,000  Level Boston Center
Sat 09:08:01 AM 42.7736 -73.0794 267° West 211 243 20,000  Level Boston Center
Sat 09:09:13 AM 42.7567 -73.1528 253° West 211 243 20,000  Level Boston Center
Sat 09:10:13 AM 42.7228 -73.2369 241° Southwest 211 243 20,000  Level Boston Center
Sat 09:11:13 AM 42.6972 -73.3044 243° Southwest 211 243 20,000  Level Boston Center
Sat 09:12:13 AM 42.6697 -73.3719 241° Southwest 211 243 20,000  Level Boston Center
Sat 09:13:13 AM 42.6439 -73.4419 243° Southwest 211 243 20,000  Level Boston Center
Sat 09:14:13 AM 42.6164 -73.5094 241° Southwest 206 237 20,000  Level Boston Center
Sat 09:15:13 AM 42.5906 -73.5794 243° Southwest 206 237 20,000  Level Boston Center
Sat 09:16:13 AM 42.5628 -73.6439 240° Southwest 206 237 20,000  Level Boston Center
Sat 09:17:13 AM 42.5369 -73.7164 244° Southwest 206 237 20,000  Level Boston Center
Sat 09:18:13 AM 42.5114 -73.7836 243° Southwest 206 237 20,000  Level Boston Center
Sat 09:19:13 AM 42.4833 -73.8533 241° Southwest 206 237 20,000  Level Boston Center
Sat 09:20:13 AM 42.4553 -73.9203 240° Southwest 206 237 20,000  Level Boston Center
Sat 09:21:13 AM 42.4272 -73.9900 241° Southwest 206 237 20,000  Level Boston Center
Sat 09:22:13 AM 42.4014 -74.0567 242° Southwest 206 237 20,000  Level Boston Center
Sat 09:23:13 AM 42.3733 -74.1264 241° Southwest 206 237 20,000 -50 Level Boston Center
Sat 09:24:13 AM 42.3536 -74.1792 243° Southwest 206 237 19,900 -50 Descending Boston Center
Sat 09:25:13 AM 42.3211 -74.2653 243° Southwest 206 237 19,900 50 Level Boston Center
Sat 09:26:13 AM 42.2931 -74.3319 240° Southwest 211 243 20,000 50 Climbing Boston Center
Sat 09:27:13 AM 42.2647 -74.4039 242° Southwest 211 243 20,000 -50 Level Boston Center
Sat 09:28:13 AM 42.2386 -74.4647 240° Southwest 211 243 19,900 -50 Descending Boston Center
Sat 09:29:13 AM 42.2122 -74.5311 242° Southwest 211 243 19,900  Level Boston Center
Sat 09:30:13 AM 42.1861 -74.5975 242° Southwest 211 243 19,900  Level Boston Center
Sat 09:31:13 AM 42.1575 -74.6667 241° Southwest 211 243 19,900  Level Boston Center
Sat 09:32:13 AM 42.1314 -74.7331 242° Southwest 206 237 19,900  Level Boston Center
Sat 09:33:13 AM 42.1047 -74.8047 243° Southwest 206 237 19,900  Level Boston Center
Sat 09:34:13 AM 42.0764 -74.8708 240° Southwest 206 237 19,900  Level Boston Center
Sat 09:36:26 AM 42.0139 -75.0194 241° Southwest 209 241 19,900  Level New York Center
Sat 09:37:27 AM 41.9842 -75.0900 240° Southwest 209 241 19,900  Level New York Center
Sat 09:38:27 AM 41.9528 -75.1578 238° Southwest 214 246 19,900  Level New York Center
Sat 09:39:26 AM 41.9050 -75.2103 219° Southwest 224 258 19,900  Level New York Center
Sat 09:40:27 AM 41.8592 -75.2628 220° Southwest 224 258 19,900  Level New York Center
Sat 09:41:25 AM 41.8133 -75.3211 223° Southwest 224 258 19,900  Level New York Center
Sat 09:42:25 AM 41.7697 -75.3708 220° Southwest 224 258 19,900 -50 Level New York Center
Sat 09:43:26 AM 41.7239 -75.4261 222° Southwest 224 258 19,800 -496 Descending New York Center
Sat 09:44:26 AM 41.6692 -75.4917 222° Southwest 224 258 18,900 -744 Descending New York Center
Sat 09:45:27 AM 41.6208 -75.5519 223° Southwest 241 277 18,300 -559 Descending New York Center
Sat 09:46:24 AM 41.5772 -75.6044 222° Southwest 241 277 17,800 -356 Descending New York Center
Sat 09:47:25 AM 41.5228 -75.6642 219° Southwest 246 283 17,600 -295 Descending New York Center
Sat 09:48:26 AM 41.4744 -75.7242 223° Southwest 246 283 17,200 -443 Descending New York Center
Sat 09:49:27 AM 41.4239 -75.7842 222° Southwest 246 283 16,700 -504 Descending New York Center
Sat 09:50:25 AM 41.3736 -75.8414 221° Southwest 246 283 16,200 -353 Descending New York Center
Sat 09:51:26 AM 41.3233 -75.8983 220° Southwest 246 283 16,000 -99 Descending New York Center
Sat 09:52:26 AM 41.2750 -75.9525 220° Southwest 246 283 16,000  Level New York Center
Sat 09:53:27 AM 41.2244 -76.0122 222° Southwest 238 274 16,000  Level New York Center
Sat 09:54:26 AM 41.1783 -76.0664 221° Southwest 225 259 16,000  Level New York Center
Sat 09:55:26 AM 41.1344 -76.1181 222° Southwest 225 259 16,000  Level New York Center
Sat 09:56:27 AM 41.0925 -76.1672 221° Southwest 225 259 16,000  Level New York Center
Sat 09:57:27 AM 41.0464 -76.2214 222° Southwest 225 259 16,000  Level New York Center
Sat 09:58:27 AM 40.9956 -76.2806 221° Southwest 220 253 16,000  Level New York Center
Sat 09:59:26 AM 40.9472 -76.3369 221° Southwest 226 260 16,000  Level New York Center
Sat 10:00:26 AM 40.9008 -76.3908 221° Southwest 226 260 16,000  Level New York Center
Sat 10:01:25 AM 40.8589 -76.4394 221° Southwest 226 260 16,000  Level New York Center
Sat 10:02:26 AM 40.8128 -76.4906 220° Southwest 226 260 16,000  Level New York Center
Sat 10:03:26 AM 40.7600 -76.5492 220° Southwest 226 260 16,000  Level New York Center
Sat 10:04:26 AM 40.7114 -76.6025 220° Southwest 226 260 16,000  Level New York Center
Sat 10:05:27 AM 40.6669 -76.6589 224° Southwest 226 260 16,000  Level New York Center
Sat 10:06:25 AM 40.6228 -76.7100 221° Southwest 226 260 16,000  Level New York Center
Sat 10:07:25 AM 40.5739 -76.7686 222° Southwest 221 254 16,000  Level New York Center
Sat 10:08:26 AM 40.5253 -76.8217 220° Southwest 221 254 16,000  Level New York Center
Sat 10:09:26 AM 40.4856 -76.8672 221° Southwest 221 254 16,000  Level New York Center
Sat 10:10:26 AM 40.4325 -76.9253 220° Southwest 221 254 16,000  Level New York Center
Sat 10:11:25 AM 40.3903 -76.9733 221° Southwest 221 254 16,000  Level New York Center
Sat 10:12:25 AM 40.3394 -77.0314 221° Southwest 221 254 16,000 -496 Level New York Center
Sat 10:13:26 AM 40.2903 -77.0897 222° Southwest 226 260 15,000 -5,410 Descending New York Center
Sat 10:14:27 AM 40.2453 -77.1536 227° Southwest 238 274 5,000 -893 Descending New York Center
Sat 10:15:27 AM 40.1981 -77.2172 226° Southwest 251 289 13,200 3,712 Climbing New York Center
Sat 10:16:25 AM 40.1531 -77.2781 226° Southwest 246 283 12,300 -1,059 Descending New York Center
Sat 10:17:26 AM 40.1081 -77.3364 225° Southwest 241 277 11,100 -1,131 Descending New York Center
Sat 10:18:27 AM 40.0633 -77.3892 222° Southwest 236 272 10,000 -1,140 Descending New York Center
Sat 10:19:27 AM 40.0147 -77.4389 218° Southwest 224 258 8,800 -1,220 Descending New York Center
Sat 10:20:25 AM 39.9661 -77.4858 217° Southwest 224 258 7,600 -1,220 Descending New York Center
Sat 10:21:25 AM 39.9197 -77.5328 218° Southwest 218 251 6,400 -1,230 Descending New York Center
Sat 10:22:27 AM 39.8678 -77.5656 206° Southwest 213 245 5,100 -1,450 Descending New York Center
Sat 10:23:25 AM 39.8103 -77.5844 194° South 207 238 3,500 -1,311 Descending New York Center
Sat 10:24:26 AM 39.7556 -77.5953 189° South 212 244 2,500 -645 Descending New York Center
Sat 10:25:26 AM 39.7231 -77.6164 207° Southwest 174 200 2,200 -545 Descending New York Center
Sat 10:26:27 AM 39.7161 -77.6642 259° West 132 152 1,400 -397 Descending New York Center
Sat 10:27:27 AM 39.6814 -77.6853 205° Southwest 132 152 1,400  Level New York Center

Login

Don't have an account? Register now (free) for customized features, flight alerts, and more!